sensor_id;sensor_type;location;lat;lon;timestamp;P1;durP1;ratioP1;P2;durP2;ratioP2
7899;SDS011;3995;50.856;4.404;2023-01-23T00:00:45;13.98;;;12.63;;
7899;SDS011;3995;50.856;4.404;2023-01-23T00:03:13;15.50;;;13.98;;
7899;SDS011;3995;50.856;4.404;2023-01-23T00:05:42;15.38;;;13.77;;
7899;SDS011;3995;50.856;4.404;2023-01-23T00:08:10;16.17;;;14.10;;
7899;SDS011;3995;50.856;4.404;2023-01-23T00:10:37;16.30;;;14.57;;
7899;SDS011;3995;50.856;4.404;2023-01-23T00:13:04;15.32;;;13.60;;
7899;SDS011;3995;50.856;4.404;2023-01-23T00:15:31;16.17;;;14.57;;
7899;SDS011;3995;50.856;4.404;2023-01-23T00:17:58;15.88;;;14.27;;
7899;SDS011;3995;50.856;4.404;2023-01-23T00:20:26;16.15;;;14.55;;
7899;SDS011;3995;50.856;4.404;2023-01-23T00:22:55;17.98;;;16.17;;
7899;SDS011;3995;50.856;4.404;2023-01-23T00:25:22;16.95;;;15.15;;
7899;SDS011;3995;50.856;4.404;2023-01-23T00:27:49;16.98;;;14.68;;
7899;SDS011;3995;50.856;4.404;2023-01-23T00:30:16;17.65;;;15.05;;
7899;SDS011;3995;50.856;4.404;2023-01-23T00:32:43;17.30;;;15.45;;
7899;SDS011;3995;50.856;4.404;2023-01-23T00:35:10;17.40;;;15.60;;
7899;SDS011;3995;50.856;4.404;2023-01-23T00:37:37;18.75;;;16.02;;
7899;SDS011;3995;50.856;4.404;2023-01-23T00:40:06;16.08;;;14.52;;
7899;SDS011;3995;50.856;4.404;2023-01-23T00:42:34;17.08;;;15.27;;
7899;SDS011;3995;50.856;4.404;2023-01-23T00:45:02;16.60;;;14.90;;
7899;SDS011;3995;50.856;4.404;2023-01-23T00:47:29;16.85;;;15.05;;
7899;SDS011;3995;50.856;4.404;2023-01-23T00:49:56;16.95;;;15.25;;
7899;SDS011;3995;50.856;4.404;2023-01-23T00:52:23;17.60;;;15.90;;
7899;SDS011;3995;50.856;4.404;2023-01-23T00:54:51;22.70;;;17.45;;
7899;SDS011;3995;50.856;4.404;2023-01-23T00:57:20;20.92;;;17.58;;
7899;SDS011;3995;50.856;4.404;2023-01-23T00:59:47;16.67;;;14.90;;
7899;SDS011;3995;50.856;4.404;2023-01-23T01:02:14;17.88;;;15.02;;
7899;SDS011;3995;50.856;4.404;2023-01-23T01:04:42;20.38;;;17.40;;
7899;SDS011;3995;50.856;4.404;2023-01-23T01:07:09;19.05;;;17.02;;
7899;SDS011;3995;50.856;4.404;2023-01-23T01:09:36;20.45;;;16.38;;
7899;SDS011;3995;50.856;4.404;2023-01-23T01:12:03;20.02;;;16.30;;
7899;SDS011;3995;50.856;4.404;2023-01-23T01:14:32;20.80;;;18.30;;
7899;SDS011;3995;50.856;4.404;2023-01-23T01:16:59;20.73;;;17.33;;
7899;SDS011;3995;50.856;4.404;2023-01-23T01:19:26;19.27;;;17.23;;
7899;SDS011;3995;50.856;4.404;2023-01-23T01:21:53;19.65;;;17.50;;
7899;SDS011;3995;50.856;4.404;2023-01-23T01:24:21;23.13;;;19.02;;
7899;SDS011;3995;50.856;4.404;2023-01-23T01:26:49;24.20;;;19.58;;
7899;SDS011;3995;50.856;4.404;2023-01-23T01:29:16;21.30;;;17.33;;
7899;SDS011;3995;50.856;4.404;2023-01-23T01:31:46;21.52;;;19.02;;
7899;SDS011;3995;50.856;4.404;2023-01-23T01:34:13;20.15;;;17.83;;
7899;SDS011;3995;50.856;4.404;2023-01-23T01:36:40;20.88;;;18.67;;
7899;SDS011;3995;50.856;4.404;2023-01-23T01:39:07;24.88;;;19.08;;
7899;SDS011;3995;50.856;4.404;2023-01-23T01:41:34;19.63;;;17.52;;
7899;SDS011;3995;50.856;4.404;2023-01-23T01:44:01;19.88;;;17.13;;
7899;SDS011;3995;50.856;4.404;2023-01-23T01:46:29;22.48;;;18.15;;
7899;SDS011;3995;50.856;4.404;2023-01-23T01:49:01;20.15;;;18.10;;
7899;SDS011;3995;50.856;4.404;2023-01-23T01:51:32;20.90;;;17.73;;
7899;SDS011;3995;50.856;4.404;2023-01-23T01:54:06;17.40;;;15.60;;
7899;SDS011;3995;50.856;4.404;2023-01-23T01:56:40;22.02;;;18.50;;
7899;SDS011;3995;50.856;4.404;2023-01-23T01:59:10;22.23;;;19.63;;
7899;SDS011;3995;50.856;4.404;2023-01-23T02:01:38;21.25;;;18.95;;
7899;SDS011;3995;50.856;4.404;2023-01-23T02:04:10;19.77;;;17.70;;
7899;SDS011;3995;50.856;4.404;2023-01-23T02:06:43;21.17;;;18.08;;
7899;SDS011;3995;50.856;4.404;2023-01-23T02:09:11;20.73;;;18.35;;
7899;SDS011;3995;50.856;4.404;2023-01-23T02:11:43;22.13;;;18.33;;
7899;SDS011;3995;50.856;4.404;2023-01-23T02:14:11;25.85;;;19.98;;
7899;SDS011;3995;50.856;4.404;2023-01-23T02:16:38;23.70;;;18.92;;
7899;SDS011;3995;50.856;4.404;2023-01-23T02:19:14;22.70;;;19.63;;
7899;SDS011;3995;50.856;4.404;2023-01-23T02:21:49;26.38;;;19.58;;
7899;SDS011;3995;50.856;4.404;2023-01-23T02:24:30;23.73;;;19.58;;
7899;SDS011;3995;50.856;4.404;2023-01-23T02:27:02;23.98;;;19.98;;
7899;SDS011;3995;50.856;4.404;2023-01-23T02:29:38;26.65;;;20.95;;
7899;SDS011;3995;50.856;4.404;2023-01-23T02:32:07;24.95;;;21.40;;
7899;SDS011;3995;50.856;4.404;2023-01-23T02:34:34;24.15;;;20.25;;
7899;SDS011;3995;50.856;4.404;2023-01-23T02:37:02;26.20;;;21.63;;
7899;SDS011;3995;50.856;4.404;2023-01-23T02:39:32;27.02;;;21.45;;
7899;SDS011;3995;50.856;4.404;2023-01-23T02:41:59;29.90;;;21.83;;
7899;SDS011;3995;50.856;4.404;2023-01-23T02:44:29;23.88;;;19.55;;
7899;SDS011;3995;50.856;4.404;2023-01-23T02:46:57;27.55;;;22.35;;
7899;SDS011;3995;50.856;4.404;2023-01-23T02:49:26;30.63;;;22.77;;
7899;SDS011;3995;50.856;4.404;2023-01-23T02:51:54;31.80;;;23.60;;
7899;SDS011;3995;50.856;4.404;2023-01-23T02:54:22;30.20;;;21.70;;
7899;SDS011;3995;50.856;4.404;2023-01-23T02:56:49;27.20;;;21.90;;
7899;SDS011;3995;50.856;4.404;2023-01-23T02:59:16;27.80;;;22.42;;
7899;SDS011;3995;50.856;4.404;2023-01-23T03:02:02;28.08;;;22.13;;
7899;SDS011;3995;50.856;4.404;2023-01-23T03:04:32;30.75;;;23.13;;
7899;SDS011;3995;50.856;4.404;2023-01-23T03:06:59;29.58;;;22.00;;
7899;SDS011;3995;50.856;4.404;2023-01-23T03:09:26;31.67;;;23.80;;
7899;SDS011;3995;50.856;4.404;2023-01-23T03:11:53;31.52;;;23.02;;
7899;SDS011;3995;50.856;4.404;2023-01-23T03:14:21;32.67;;;22.70;;
7899;SDS011;3995;50.856;4.404;2023-01-23T03:16:49;27.98;;;21.65;;
7899;SDS011;3995;50.856;4.404;2023-01-23T03:19:20;27.23;;;23.05;;
7899;SDS011;3995;50.856;4.404;2023-01-23T03:21:49;25.55;;;21.20;;
7899;SDS011;3995;50.856;4.404;2023-01-23T03:24:16;25.77;;;22.10;;
7899;SDS011;3995;50.856;4.404;2023-01-23T03:26:45;30.50;;;22.83;;
7899;SDS011;3995;50.856;4.404;2023-01-23T03:29:14;29.27;;;22.27;;
7899;SDS011;3995;50.856;4.404;2023-01-23T03:31:59;31.08;;;23.02;;
7899;SDS011;3995;50.856;4.404;2023-01-23T03:34:28;27.42;;;21.80;;
7899;SDS011;3995;50.856;4.404;2023-01-23T03:36:56;27.83;;;22.50;;
7899;SDS011;3995;50.856;4.404;2023-01-23T03:39:23;26.92;;;21.58;;
7899;SDS011;3995;50.856;4.404;2023-01-23T03:42:08;26.98;;;22.30;;
7899;SDS011;3995;50.856;4.404;2023-01-23T03:44:35;31.50;;;22.50;;
7899;SDS011;3995;50.856;4.404;2023-01-23T03:47:02;29.48;;;22.23;;
7899;SDS011;3995;50.856;4.404;2023-01-23T03:49:32;28.13;;;22.45;;
7899;SDS011;3995;50.856;4.404;2023-01-23T03:51:59;28.27;;;22.58;;
7899;SDS011;3995;50.856;4.404;2023-01-23T03:54:26;26.52;;;22.55;;
7899;SDS011;3995;50.856;4.404;2023-01-23T03:56:54;27.98;;;22.45;;
7899;SDS011;3995;50.856;4.404;2023-01-23T03:59:21;26.27;;;21.20;;
7899;SDS011;3995;50.856;4.404;2023-01-23T04:01:48;27.95;;;21.25;;
7899;SDS011;3995;50.856;4.404;2023-01-23T04:04:15;28.20;;;21.67;;
7899;SDS011;3995;50.856;4.404;2023-01-23T04:06:44;28.48;;;22.27;;
7899;SDS011;3995;50.856;4.404;2023-01-23T04:09:11;27.75;;;22.20;;
7899;SDS011;3995;50.856;4.404;2023-01-23T04:11:38;28.27;;;22.13;;
7899;SDS011;3995;50.856;4.404;2023-01-23T04:14:05;31.75;;;21.80;;
7899;SDS011;3995;50.856;4.404;2023-01-23T04:16:32;27.60;;;21.50;;
7899;SDS011;3995;50.856;4.404;2023-01-23T04:18:59;26.88;;;20.92;;
7899;SDS011;3995;50.856;4.404;2023-01-23T04:21:26;26.38;;;21.15;;
7899;SDS011;3995;50.856;4.404;2023-01-23T04:23:54;26.13;;;21.30;;
7899;SDS011;3995;50.856;4.404;2023-01-23T04:26:22;29.30;;;21.13;;
7899;SDS011;3995;50.856;4.404;2023-01-23T04:28:49;28.73;;;21.40;;
7899;SDS011;3995;50.856;4.404;2023-01-23T04:31:17;28.67;;;22.67;;
7899;SDS011;3995;50.856;4.404;2023-01-23T04:33:43;27.92;;;22.08;;
7899;SDS011;3995;50.856;4.404;2023-01-23T04:36:11;26.35;;;20.75;;
7899;SDS011;3995;50.856;4.404;2023-01-23T04:38:38;30.77;;;22.42;;
7899;SDS011;3995;50.856;4.404;2023-01-23T04:41:08;27.17;;;22.33;;
7899;SDS011;3995;50.856;4.404;2023-01-23T04:43:36;27.25;;;22.02;;
7899;SDS011;3995;50.856;4.404;2023-01-23T04:46:03;34.30;;;22.17;;
7899;SDS011;3995;50.856;4.404;2023-01-23T04:48:31;28.20;;;21.58;;
7899;SDS011;3995;50.856;4.404;2023-01-23T04:50:58;26.20;;;21.77;;
7899;SDS011;3995;50.856;4.404;2023-01-23T04:53:25;28.70;;;21.42;;
7899;SDS011;3995;50.856;4.404;2023-01-23T04:55:52;26.08;;;20.42;;
7899;SDS011;3995;50.856;4.404;2023-01-23T04:58:21;27.50;;;20.85;;
7899;SDS011;3995;50.856;4.404;2023-01-23T05:00:48;31.30;;;22.27;;
7899;SDS011;3995;50.856;4.404;2023-01-23T05:03:16;29.15;;;22.70;;
7899;SDS011;3995;50.856;4.404;2023-01-23T05:05:43;26.55;;;20.92;;
7899;SDS011;3995;50.856;4.404;2023-01-23T05:08:11;29.02;;;21.55;;
7899;SDS011;3995;50.856;4.404;2023-01-23T05:10:38;26.20;;;20.90;;
7899;SDS011;3995;50.856;4.404;2023-01-23T05:13:05;29.17;;;21.23;;
7899;SDS011;3995;50.856;4.404;2023-01-23T05:15:36;28.50;;;22.13;;
7899;SDS011;3995;50.856;4.404;2023-01-23T05:18:03;27.80;;;21.08;;
7899;SDS011;3995;50.856;4.404;2023-01-23T05:20:30;29.60;;;22.20;;
7899;SDS011;3995;50.856;4.404;2023-01-23T05:22:58;29.67;;;21.90;;
7899;SDS011;3995;50.856;4.404;2023-01-23T05:25:26;30.63;;;22.27;;
7899;SDS011;3995;50.856;4.404;2023-01-23T05:27:54;31.23;;;21.33;;
7899;SDS011;3995;50.856;4.404;2023-01-23T05:30:21;32.22;;;21.73;;
7899;SDS011;3995;50.856;4.404;2023-01-23T05:32:50;30.52;;;23.55;;
7899;SDS011;3995;50.856;4.404;2023-01-23T05:35:17;32.92;;;21.60;;
7899;SDS011;3995;50.856;4.404;2023-01-23T05:37:47;30.35;;;21.30;;
7899;SDS011;3995;50.856;4.404;2023-01-23T05:40:15;28.58;;;21.05;;
7899;SDS011;3995;50.856;4.404;2023-01-23T05:42:42;31.08;;;21.15;;
7899;SDS011;3995;50.856;4.404;2023-01-23T05:45:10;27.88;;;20.95;;
7899;SDS011;3995;50.856;4.404;2023-01-23T05:47:37;51.42;;;36.85;;
7899;SDS011;3995;50.856;4.404;2023-01-23T05:50:06;62.92;;;50.45;;
7899;SDS011;3995;50.856;4.404;2023-01-23T05:52:38;92.30;;;72.43;;
7899;SDS011;3995;50.856;4.404;2023-01-23T05:55:06;34.45;;;24.85;;
7899;SDS011;3995;50.856;4.404;2023-01-23T05:57:33;33.60;;;24.00;;
7899;SDS011;3995;50.856;4.404;2023-01-23T06:00:02;28.50;;;21.95;;
7899;SDS011;3995;50.856;4.404;2023-01-23T06:02:29;35.15;;;23.58;;
7899;SDS011;3995;50.856;4.404;2023-01-23T06:04:56;29.77;;;21.75;;
7899;SDS011;3995;50.856;4.404;2023-01-23T06:07:25;31.27;;;21.77;;
7899;SDS011;3995;50.856;4.404;2023-01-23T06:09:52;32.17;;;22.70;;
7899;SDS011;3995;50.856;4.404;2023-01-23T06:12:19;30.98;;;22.20;;
7899;SDS011;3995;50.856;4.404;2023-01-23T06:14:46;30.73;;;22.00;;
7899;SDS011;3995;50.856;4.404;2023-01-23T06:17:13;32.50;;;22.50;;
7899;SDS011;3995;50.856;4.404;2023-01-23T06:19:41;32.08;;;22.73;;
7899;SDS011;3995;50.856;4.404;2023-01-23T06:22:09;29.48;;;22.88;;
7899;SDS011;3995;50.856;4.404;2023-01-23T06:24:38;29.27;;;22.10;;
7899;SDS011;3995;50.856;4.404;2023-01-23T06:27:05;30.40;;;22.20;;
7899;SDS011;3995;50.856;4.404;2023-01-23T06:29:33;31.42;;;21.52;;
7899;SDS011;3995;50.856;4.404;2023-01-23T06:32:00;31.77;;;22.63;;
7899;SDS011;3995;50.856;4.404;2023-01-23T06:34:28;31.30;;;22.30;;
7899;SDS011;3995;50.856;4.404;2023-01-23T06:36:55;30.85;;;22.92;;
7899;SDS011;3995;50.856;4.404;2023-01-23T06:39:22;27.83;;;21.67;;
7899;SDS011;3995;50.856;4.404;2023-01-23T06:41:50;27.92;;;20.20;;
7899;SDS011;3995;50.856;4.404;2023-01-23T06:44:17;29.52;;;20.95;;
7899;SDS011;3995;50.856;4.404;2023-01-23T06:46:44;34.08;;;23.45;;
7899;SDS011;3995;50.856;4.404;2023-01-23T06:49:11;27.75;;;20.60;;
7899;SDS011;3995;50.856;4.404;2023-01-23T06:51:38;26.02;;;20.10;;
7899;SDS011;3995;50.856;4.404;2023-01-23T06:54:06;28.88;;;21.10;;
7899;SDS011;3995;50.856;4.404;2023-01-23T06:56:33;29.33;;;20.67;;
7899;SDS011;3995;50.856;4.404;2023-01-23T06:59:01;29.42;;;21.60;;
7899;SDS011;3995;50.856;4.404;2023-01-23T07:01:28;31.45;;;21.67;;
7899;SDS011;3995;50.856;4.404;2023-01-23T07:03:55;33.28;;;23.35;;
7899;SDS011;3995;50.856;4.404;2023-01-23T07:06:22;35.22;;;21.38;;
7899;SDS011;3995;50.856;4.404;2023-01-23T07:08:49;28.92;;;21.98;;
7899;SDS011;3995;50.856;4.404;2023-01-23T07:11:16;29.23;;;21.25;;
7899;SDS011;3995;50.856;4.404;2023-01-23T07:13:44;25.35;;;20.25;;
7899;SDS011;3995;50.856;4.404;2023-01-23T07:16:13;27.52;;;20.65;;
7899;SDS011;3995;50.856;4.404;2023-01-23T07:18:40;29.50;;;20.08;;
7899;SDS011;3995;50.856;4.404;2023-01-23T07:21:07;27.75;;;22.08;;
7899;SDS011;3995;50.856;4.404;2023-01-23T07:23:34;29.95;;;20.58;;
7899;SDS011;3995;50.856;4.404;2023-01-23T07:26:02;26.02;;;20.45;;
7899;SDS011;3995;50.856;4.404;2023-01-23T07:28:33;25.15;;;20.80;;
7899;SDS011;3995;50.856;4.404;2023-01-23T07:31:01;29.80;;;21.52;;
7899;SDS011;3995;50.856;4.404;2023-01-23T07:33:29;28.33;;;21.20;;
7899;SDS011;3995;50.856;4.404;2023-01-23T07:35:57;28.58;;;21.17;;
7899;SDS011;3995;50.856;4.404;2023-01-23T07:38:24;30.70;;;22.13;;
7899;SDS011;3995;50.856;4.404;2023-01-23T07:40:52;28.35;;;22.10;;
7899;SDS011;3995;50.856;4.404;2023-01-23T07:43:24;29.35;;;22.60;;
7899;SDS011;3995;50.856;4.404;2023-01-23T07:45:51;28.38;;;22.33;;
7899;SDS011;3995;50.856;4.404;2023-01-23T07:48:18;26.70;;;21.85;;
7899;SDS011;3995;50.856;4.404;2023-01-23T07:50:47;26.77;;;21.65;;
7899;SDS011;3995;50.856;4.404;2023-01-23T07:53:14;28.80;;;21.30;;
7899;SDS011;3995;50.856;4.404;2023-01-23T07:55:41;30.08;;;22.23;;
7899;SDS011;3995;50.856;4.404;2023-01-23T07:58:08;34.75;;;24.38;;
7899;SDS011;3995;50.856;4.404;2023-01-23T08:00:35;27.50;;;22.17;;
7899;SDS011;3995;50.856;4.404;2023-01-23T08:03:03;32.22;;;23.60;;
7899;SDS011;3995;50.856;4.404;2023-01-23T08:05:30;28.35;;;22.38;;
7899;SDS011;3995;50.856;4.404;2023-01-23T08:07:59;28.27;;;22.88;;
7899;SDS011;3995;50.856;4.404;2023-01-23T08:10:26;30.17;;;24.30;;
7899;SDS011;3995;50.856;4.404;2023-01-23T08:12:54;31.67;;;23.67;;
7899;SDS011;3995;50.856;4.404;2023-01-23T08:15:21;29.23;;;23.15;;
7899;SDS011;3995;50.856;4.404;2023-01-23T08:17:48;30.63;;;24.67;;
7899;SDS011;3995;50.856;4.404;2023-01-23T08:20:16;27.38;;;22.88;;
7899;SDS011;3995;50.856;4.404;2023-01-23T08:22:44;28.45;;;22.42;;
7899;SDS011;3995;50.856;4.404;2023-01-23T08:25:14;29.15;;;24.50;;
7899;SDS011;3995;50.856;4.404;2023-01-23T08:27:42;30.70;;;23.98;;
7899;SDS011;3995;50.856;4.404;2023-01-23T08:30:10;27.48;;;21.52;;
7899;SDS011;3995;50.856;4.404;2023-01-23T08:32:37;29.85;;;22.67;;
7899;SDS011;3995;50.856;4.404;2023-01-23T08:35:04;28.45;;;23.30;;
7899;SDS011;3995;50.856;4.404;2023-01-23T08:37:32;32.55;;;23.25;;
7899;SDS011;3995;50.856;4.404;2023-01-23T08:40:00;27.33;;;22.48;;
7899;SDS011;3995;50.856;4.404;2023-01-23T08:42:29;30.40;;;23.30;;
7899;SDS011;3995;50.856;4.404;2023-01-23T08:44:56;32.70;;;22.63;;
7899;SDS011;3995;50.856;4.404;2023-01-23T08:47:24;31.58;;;24.40;;
7899;SDS011;3995;50.856;4.404;2023-01-23T08:49:51;30.67;;;23.33;;
7899;SDS011;3995;50.856;4.404;2023-01-23T08:52:18;27.90;;;22.92;;
7899;SDS011;3995;50.856;4.404;2023-01-23T08:54:46;32.10;;;21.05;;
7899;SDS011;3995;50.856;4.404;2023-01-23T08:57:13;30.73;;;23.25;;
7899;SDS011;3995;50.856;4.404;2023-01-23T08:59:41;29.70;;;23.08;;
7899;SDS011;3995;50.856;4.404;2023-01-23T09:02:10;25.33;;;21.73;;
7899;SDS011;3995;50.856;4.404;2023-01-23T09:04:37;27.92;;;22.92;;
7899;SDS011;3995;50.856;4.404;2023-01-23T09:07:04;26.27;;;21.42;;
7899;SDS011;3995;50.856;4.404;2023-01-23T09:09:32;31.23;;;22.55;;
7899;SDS011;3995;50.856;4.404;2023-01-23T09:11:59;27.65;;;22.50;;
7899;SDS011;3995;50.856;4.404;2023-01-23T09:14:26;27.00;;;21.65;;
7899;SDS011;3995;50.856;4.404;2023-01-23T09:16:56;32.75;;;22.30;;
7899;SDS011;3995;50.856;4.404;2023-01-23T09:19:22;27.55;;;23.50;;
7899;SDS011;3995;50.856;4.404;2023-01-23T09:21:51;25.38;;;21.90;;
7899;SDS011;3995;50.856;4.404;2023-01-23T09:24:18;28.17;;;22.95;;
7899;SDS011;3995;50.856;4.404;2023-01-23T09:26:46;28.20;;;22.98;;
7899;SDS011;3995;50.856;4.404;2023-01-23T09:29:13;32.70;;;22.40;;
7899;SDS011;3995;50.856;4.404;2023-01-23T09:31:40;29.50;;;26.25;;
7899;SDS011;3995;50.856;4.404;2023-01-23T09:34:09;32.10;;;23.77;;
7899;SDS011;3995;50.856;4.404;2023-01-23T09:36:36;32.42;;;24.23;;
7899;SDS011;3995;50.856;4.404;2023-01-23T09:39:03;33.38;;;23.60;;
7899;SDS011;3995;50.856;4.404;2023-01-23T09:41:31;28.85;;;24.05;;
7899;SDS011;3995;50.856;4.404;2023-01-23T09:43:59;29.33;;;22.70;;
7899;SDS011;3995;50.856;4.404;2023-01-23T09:46:31;29.00;;;23.42;;
7899;SDS011;3995;50.856;4.404;2023-01-23T09:49:04;27.85;;;23.88;;
7899;SDS011;3995;50.856;4.404;2023-01-23T09:51:43;25.58;;;22.75;;
7899;SDS011;3995;50.856;4.404;2023-01-23T09:54:19;28.10;;;23.10;;
7899;SDS011;3995;50.856;4.404;2023-01-23T09:56:56;31.80;;;25.65;;
7899;SDS011;3995;50.856;4.404;2023-01-23T09:59:32;25.02;;;22.40;;
7899;SDS011;3995;50.856;4.404;2023-01-23T10:02:02;28.95;;;24.17;;
7899;SDS011;3995;50.856;4.404;2023-01-23T10:04:37;27.08;;;23.95;;
7899;SDS011;3995;50.856;4.404;2023-01-23T10:10:14;26.30;;;23.48;;
7899;SDS011;3995;50.856;4.404;2023-01-23T10:12:57;25.50;;;22.55;;
7899;SDS011;3995;50.856;4.404;2023-01-23T10:15:32;30.25;;;23.77;;
7899;SDS011;3995;50.856;4.404;2023-01-23T10:18:22;25.48;;;22.70;;
7899;SDS011;3995;50.856;4.404;2023-01-23T10:20:59;24.33;;;20.67;;
7899;SDS011;3995;50.856;4.404;2023-01-23T10:23:43;23.65;;;21.15;;
7899;SDS011;3995;50.856;4.404;2023-01-23T10:26:17;23.83;;;21.33;;
7899;SDS011;3995;50.856;4.404;2023-01-23T10:28:48;27.50;;;22.42;;
7899;SDS011;3995;50.856;4.404;2023-01-23T10:31:25;24.13;;;21.65;;
7899;SDS011;3995;50.856;4.404;2023-01-23T10:34:01;23.98;;;21.20;;
7899;SDS011;3995;50.856;4.404;2023-01-23T10:36:38;27.08;;;20.80;;
7899;SDS011;3995;50.856;4.404;2023-01-23T10:39:13;23.92;;;21.35;;
7899;SDS011;3995;50.856;4.404;2023-01-23T10:41:44;24.80;;;22.08;;
7899;SDS011;3995;50.856;4.404;2023-01-23T10:44:13;25.73;;;21.83;;
7899;SDS011;3995;50.856;4.404;2023-01-23T10:46:44;24.00;;;20.45;;
7899;SDS011;3995;50.856;4.404;2023-01-23T10:49:25;25.05;;;22.42;;
7899;SDS011;3995;50.856;4.404;2023-01-23T10:51:55;24.00;;;21.38;;
7899;SDS011;3995;50.856;4.404;2023-01-23T10:54:23;23.20;;;20.48;;
7899;SDS011;3995;50.856;4.404;2023-01-23T10:56:55;25.80;;;23.00;;
7899;SDS011;3995;50.856;4.404;2023-01-23T10:59:30;22.88;;;20.40;;
7899;SDS011;3995;50.856;4.404;2023-01-23T11:02:08;23.50;;;21.00;;
7899;SDS011;3995;50.856;4.404;2023-01-23T11:04:45;23.73;;;21.17;;
7899;SDS011;3995;50.856;4.404;2023-01-23T11:07:17;23.88;;;21.08;;
7899;SDS011;3995;50.856;4.404;2023-01-23T11:09:47;24.25;;;21.25;;
7899;SDS011;3995;50.856;4.404;2023-01-23T11:12:18;24.65;;;21.48;;
7899;SDS011;3995;50.856;4.404;2023-01-23T11:14:46;22.75;;;20.23;;
7899;SDS011;3995;50.856;4.404;2023-01-23T11:17:21;25.88;;;21.65;;
7899;SDS011;3995;50.856;4.404;2023-01-23T11:19:51;23.60;;;21.08;;
7899;SDS011;3995;50.856;4.404;2023-01-23T11:22:30;22.45;;;20.10;;
7899;SDS011;3995;50.856;4.404;2023-01-23T11:25:02;23.60;;;20.95;;
7899;SDS011;3995;50.856;4.404;2023-01-23T11:27:54;25.23;;;20.77;;
7899;SDS011;3995;50.856;4.404;2023-01-23T11:33:13;24.95;;;22.10;;
7899;SDS011;3995;50.856;4.404;2023-01-23T11:35:59;22.23;;;19.83;;
7899;SDS011;3995;50.856;4.404;2023-01-23T11:38:35;26.30;;;22.17;;
7899;SDS011;3995;50.856;4.404;2023-01-23T11:41:08;25.23;;;22.52;;
7899;SDS011;3995;50.856;4.404;2023-01-23T11:43:37;24.70;;;22.05;;
7899;SDS011;3995;50.856;4.404;2023-01-23T11:46:18;22.50;;;19.90;;
7899;SDS011;3995;50.856;4.404;2023-01-23T11:49:07;24.63;;;21.98;;
7899;SDS011;3995;50.856;4.404;2023-01-23T11:51:52;24.58;;;21.90;;
7899;SDS011;3995;50.856;4.404;2023-01-23T11:54:39;23.50;;;21.05;;
7899;SDS011;3995;50.856;4.404;2023-01-23T11:57:23;25.05;;;22.55;;
7899;SDS011;3995;50.856;4.404;2023-01-23T12:00:03;24.40;;;21.88;;
7899;SDS011;3995;50.856;4.404;2023-01-23T12:08:52;26.15;;;22.52;;
7899;SDS011;3995;50.856;4.404;2023-01-23T12:11:29;25.15;;;21.80;;
7899;SDS011;3995;50.856;4.404;2023-01-23T12:14:06;22.05;;;19.75;;
7899;SDS011;3995;50.856;4.404;2023-01-23T12:16:48;23.48;;;21.00;;
7899;SDS011;3995;50.856;4.404;2023-01-23T12:19:27;25.20;;;20.08;;
7899;SDS011;3995;50.856;4.404;2023-01-23T12:22:06;23.33;;;20.60;;
7899;SDS011;3995;50.856;4.404;2023-01-23T12:24:46;21.90;;;19.63;;
7899;SDS011;3995;50.856;4.404;2023-01-23T12:27:22;22.13;;;19.95;;
7899;SDS011;3995;50.856;4.404;2023-01-23T12:33:00;22.13;;;19.83;;
7899;SDS011;3995;50.856;4.404;2023-01-23T12:35:41;24.48;;;20.77;;
7899;SDS011;3995;50.856;4.404;2023-01-23T12:38:19;22.00;;;19.38;;
7899;SDS011;3995;50.856;4.404;2023-01-23T12:40:51;25.15;;;22.45;;
7899;SDS011;3995;50.856;4.404;2023-01-23T12:43:32;26.38;;;21.60;;
7899;SDS011;3995;50.856;4.404;2023-01-23T12:46:04;23.55;;;21.15;;
7899;SDS011;3995;50.856;4.404;2023-01-23T12:48:38;24.85;;;21.02;;
7899;SDS011;3995;50.856;4.404;2023-01-23T12:51:09;27.70;;;21.80;;
7899;SDS011;3995;50.856;4.404;2023-01-23T12:53:41;24.65;;;21.08;;
7899;SDS011;3995;50.856;4.404;2023-01-23T12:56:12;24.75;;;19.95;;
7899;SDS011;3995;50.856;4.404;2023-01-23T12:58:46;24.55;;;21.83;;
7899;SDS011;3995;50.856;4.404;2023-01-23T13:01:24;25.10;;;21.45;;
7899;SDS011;3995;50.856;4.404;2023-01-23T13:04:05;23.90;;;20.70;;
7899;SDS011;3995;50.856;4.404;2023-01-23T13:06:44;24.33;;;21.40;;
7899;SDS011;3995;50.856;4.404;2023-01-23T13:09:23;23.73;;;21.27;;
7899;SDS011;3995;50.856;4.404;2023-01-23T13:12:01;23.88;;;18.85;;
7899;SDS011;3995;50.856;4.404;2023-01-23T13:14:37;24.08;;;19.80;;
7899;SDS011;3995;50.856;4.404;2023-01-23T13:20:11;21.48;;;19.25;;
7899;SDS011;3995;50.856;4.404;2023-01-23T13:23:23;23.42;;;19.05;;
7899;SDS011;3995;50.856;4.404;2023-01-23T13:26:10;17.30;;;15.18;;
7899;SDS011;3995;50.856;4.404;2023-01-23T13:28:52;22.08;;;19.02;;
7899;SDS011;3995;50.856;4.404;2023-01-23T13:31:25;20.55;;;18.13;;
7899;SDS011;3995;50.856;4.404;2023-01-23T13:33:58;20.02;;;18.00;;
7899;SDS011;3995;50.856;4.404;2023-01-23T13:36:29;19.88;;;16.92;;
7899;SDS011;3995;50.856;4.404;2023-01-23T13:38:59;19.60;;;17.60;;
7899;SDS011;3995;50.856;4.404;2023-01-23T13:41:45;19.92;;;16.73;;
7899;SDS011;3995;50.856;4.404;2023-01-23T13:44:18;18.60;;;16.80;;
7899;SDS011;3995;50.856;4.404;2023-01-23T13:47:07;20.23;;;18.05;;
7899;SDS011;3995;50.856;4.404;2023-01-23T13:50:03;19.05;;;17.05;;
7899;SDS011;3995;50.856;4.404;2023-01-23T13:52:35;19.88;;;17.48;;
7899;SDS011;3995;50.856;4.404;2023-01-23T13:55:22;21.83;;;17.85;;
7899;SDS011;3995;50.856;4.404;2023-01-23T13:58:09;20.40;;;16.77;;
7899;SDS011;3995;50.856;4.404;2023-01-23T14:00:38;20.38;;;18.30;;
7899;SDS011;3995;50.856;4.404;2023-01-23T14:03:24;20.67;;;18.48;;
7899;SDS011;3995;50.856;4.404;2023-01-23T14:06:11;18.40;;;16.48;;
7899;SDS011;3995;50.856;4.404;2023-01-23T14:08:45;18.85;;;16.95;;
7899;SDS011;3995;50.856;4.404;2023-01-23T14:11:13;20.23;;;18.15;;
7899;SDS011;3995;50.856;4.404;2023-01-23T14:13:45;20.77;;;18.55;;
7899;SDS011;3995;50.856;4.404;2023-01-23T14:16:14;20.00;;;17.95;;
7899;SDS011;3995;50.856;4.404;2023-01-23T14:18:49;27.85;;;19.73;;
7899;SDS011;3995;50.856;4.404;2023-01-23T14:21:20;21.85;;;19.42;;
7899;SDS011;3995;50.856;4.404;2023-01-23T14:23:48;22.33;;;19.52;;
7899;SDS011;3995;50.856;4.404;2023-01-23T14:26:18;24.42;;;19.90;;
7899;SDS011;3995;50.856;4.404;2023-01-23T14:28:53;22.02;;;19.38;;
7899;SDS011;3995;50.856;4.404;2023-01-23T14:31:23;22.15;;;19.15;;
7899;SDS011;3995;50.856;4.404;2023-01-23T14:33:58;20.25;;;18.10;;
7899;SDS011;3995;50.856;4.404;2023-01-23T14:36:27;24.10;;;20.05;;
7899;SDS011;3995;50.856;4.404;2023-01-23T14:38:55;21.67;;;18.17;;
7899;SDS011;3995;50.856;4.404;2023-01-23T14:41:25;21.05;;;18.83;;
7899;SDS011;3995;50.856;4.404;2023-01-23T14:43:54;21.83;;;19.42;;
7899;SDS011;3995;50.856;4.404;2023-01-23T14:46:28;20.45;;;18.25;;
7899;SDS011;3995;50.856;4.404;2023-01-23T14:49:02;21.05;;;18.85;;
7899;SDS011;3995;50.856;4.404;2023-01-23T14:51:30;21.80;;;19.48;;
7899;SDS011;3995;50.856;4.404;2023-01-23T14:53:58;20.92;;;18.75;;
7899;SDS011;3995;50.856;4.404;2023-01-23T14:56:28;21.58;;;19.27;;
7899;SDS011;3995;50.856;4.404;2023-01-23T14:58:59;21.88;;;19.45;;
7899;SDS011;3995;50.856;4.404;2023-01-23T15:01:28;22.35;;;19.40;;
7899;SDS011;3995;50.856;4.404;2023-01-23T15:03:57;21.05;;;18.23;;
7899;SDS011;3995;50.856;4.404;2023-01-23T15:06:28;21.42;;;19.00;;
7899;SDS011;3995;50.856;4.404;2023-01-23T15:09:03;22.30;;;19.90;;
7899;SDS011;3995;50.856;4.404;2023-01-23T15:11:33;21.38;;;19.00;;
7899;SDS011;3995;50.856;4.404;2023-01-23T15:14:01;21.33;;;19.02;;
7899;SDS011;3995;50.856;4.404;2023-01-23T15:16:31;21.23;;;18.85;;
7899;SDS011;3995;50.856;4.404;2023-01-23T15:19:03;20.52;;;18.42;;
7899;SDS011;3995;50.856;4.404;2023-01-23T15:21:34;22.48;;;19.30;;
7899;SDS011;3995;50.856;4.404;2023-01-23T15:24:04;22.42;;;19.80;;
7899;SDS011;3995;50.856;4.404;2023-01-23T15:27:18;24.98;;;19.40;;